CheckWX is a tool to help pilots better visualize weather data.  It is not intended as a substitute for an official pre-flight weather briefing.

19:49:12 UTC

24A METAR
Jackson County Airport
Sylva, North Carolina, USA
Current

29 mins ago

K24A 191920Z AUTO 00000KT 10SM VCTS OVC070 05/01 A3042 RMK AO2 LTG DSNT SE THRU NW T00510008
Observed
Feb-19 @ 19:20 UTC
Visibility
10 SM
Flight Rules
VFR
Conditions
Area Thunderstorm
Cloud Levels
  • Overcast at 7,000' AGL
Temperature
C / 41°F
Dewpoint
C / 34°F
Humidity
76%
Altimeter
30.42" Hg
Pressure
1030.11 hPa
Previous

49 mins ago

K24A 191900Z AUTO 14004KT 10SM OVC070 05/01 A3040 RMK AO2 LTG DSNT SE THRU NW T00500009
Observed
Feb-19 @ 19:00 UTC
Wind
  • 140° at 4 KTS
Visibility
10 SM
Flight Rules
VFR
Cloud Levels
  • Overcast at 7,000' AGL
Temperature
C / 41°F
Dewpoint
C / 34°F
Humidity
76%
Altimeter
30.4" Hg
Pressure
1029.41 hPa
Previous

1 hour ago

K24A 191840Z AUTO 14003KT 10SM OVC080 05/00 A3041 RMK AO2 LTG DSNT W AND NW T00521001
Observed
Feb-19 @ 18:40 UTC
Wind
  • 140° at 3 KTS
Visibility
10 SM
Flight Rules
VFR
Cloud Levels
  • Overcast at 8,000' AGL
Temperature
C / 41°F
Dewpoint
-0°C / 32°F
Humidity
70%
Altimeter
30.41" Hg
Pressure
1029.81 hPa